sensor_id;sensor_type;location;lat;lon;timestamp;temperature;humidity
72468;SHT30;60626;43.582;1.470;2022-08-07T00:00:23;30.10;39.51
72468;SHT30;60626;43.582;1.470;2022-08-07T00:02:50;30.05;39.52
72468;SHT30;60626;43.582;1.470;2022-08-07T00:05:19;30.04;39.47
72468;SHT30;60626;43.582;1.470;2022-08-07T00:07:49;30.02;39.39
72468;SHT30;60626;43.582;1.470;2022-08-07T00:10:27;29.98;39.50
72468;SHT30;60626;43.582;1.470;2022-08-07T00:12:56;29.98;39.58
72468;SHT30;60626;43.582;1.470;2022-08-07T00:15:27;29.94;39.77
72468;SHT30;60626;43.582;1.470;2022-08-07T00:18:04;29.96;39.81
72468;SHT30;60626;43.582;1.470;2022-08-07T00:20:31;29.93;39.63
72468;SHT30;60626;43.582;1.470;2022-08-07T00:22:59;29.91;39.69
72468;SHT30;60626;43.582;1.470;2022-08-07T00:25:26;29.91;39.59
72468;SHT30;60626;43.582;1.470;2022-08-07T00:28:03;29.88;39.47
72468;SHT30;60626;43.582;1.470;2022-08-07T00:30:30;29.87;39.47
72468;SHT30;60626;43.582;1.470;2022-08-07T00:32:58;29.90;39.44
72468;SHT30;60626;43.582;1.470;2022-08-07T00:35:27;29.84;39.57
72468;SHT30;60626;43.582;1.470;2022-08-07T00:37:56;29.83;39.42
72468;SHT30;60626;43.582;1.470;2022-08-07T00:40:23;29.83;39.53
72468;SHT30;60626;43.582;1.470;2022-08-07T00:43:04;29.76;39.53
72468;SHT30;60626;43.582;1.470;2022-08-07T00:45:35;29.73;39.44
72468;SHT30;60626;43.582;1.470;2022-08-07T00:48:02;29.69;39.55
72468;SHT30;60626;43.582;1.470;2022-08-07T00:50:36;29.72;39.43
72468;SHT30;60626;43.582;1.470;2022-08-07T00:53:16;29.70;39.59
72468;SHT30;60626;43.582;1.470;2022-08-07T00:55:42;29.64;39.60
72468;SHT30;60626;43.582;1.470;2022-08-07T00:58:29;29.66;39.55
72468;SHT30;60626;43.582;1.470;2022-08-07T01:00:56;29.64;39.59
72468;SHT30;60626;43.582;1.470;2022-08-07T01:03:24;29.66;39.62
72468;SHT30;60626;43.582;1.470;2022-08-07T01:06:11;29.64;39.60
72468;SHT30;60626;43.582;1.470;2022-08-07T01:08:39;29.62;39.52
72468;SHT30;60626;43.582;1.470;2022-08-07T01:11:18;29.60;39.44
72468;SHT30;60626;43.582;1.470;2022-08-07T01:14:06;29.60;39.35
72468;SHT30;60626;43.582;1.470;2022-08-07T01:16:34;29.57;39.32
72468;SHT30;60626;43.582;1.470;2022-08-07T01:19:06;29.55;39.39
72468;SHT30;60626;43.582;1.470;2022-08-07T01:21:46;29.52;39.49
72468;SHT30;60626;43.582;1.470;2022-08-07T01:24:15;29.50;39.47
72468;SHT30;60626;43.582;1.470;2022-08-07T01:26:47;29.47;39.56
72468;SHT30;60626;43.582;1.470;2022-08-07T01:29:18;29.47;39.63
72468;SHT30;60626;43.582;1.470;2022-08-07T01:31:45;29.42;39.66
72468;SHT30;60626;43.582;1.470;2022-08-07T01:34:14;29.40;39.64
72468;SHT30;60626;43.582;1.470;2022-08-07T01:36:47;29.42;39.72
72468;SHT30;60626;43.582;1.470;2022-08-07T01:39:25;29.40;39.73
72468;SHT30;60626;43.582;1.470;2022-08-07T01:42:15;29.36;39.84
72468;SHT30;60626;43.582;1.470;2022-08-07T01:45:03;29.36;39.90
72468;SHT30;60626;43.582;1.470;2022-08-07T01:47:41;29.35;39.92
72468;SHT30;60626;43.582;1.470;2022-08-07T01:50:28;29.33;39.96
72468;SHT30;60626;43.582;1.470;2022-08-07T01:52:57;29.32;39.96
72468;SHT30;60626;43.582;1.470;2022-08-07T01:55:26;29.32;40.00
72468;SHT30;60626;43.582;1.470;2022-08-07T01:57:56;29.30;39.96
72468;SHT30;60626;43.582;1.470;2022-08-07T02:00:45;29.29;39.93
72468;SHT30;60626;43.582;1.470;2022-08-07T02:03:18;29.28;39.88
72468;SHT30;60626;43.582;1.470;2022-08-07T02:05:58;29.25;39.89
72468;SHT30;60626;43.582;1.470;2022-08-07T02:08:35;29.23;40.02
72468;SHT30;60626;43.582;1.470;2022-08-07T02:11:09;29.22;40.38
72468;SHT30;60626;43.582;1.470;2022-08-07T02:13:57;29.16;40.66
72468;SHT30;60626;43.582;1.470;2022-08-07T02:16:28;29.12;40.93
72468;SHT30;60626;43.582;1.470;2022-08-07T02:19:01;29.09;41.17
72468;SHT30;60626;43.582;1.470;2022-08-07T02:21:50;29.08;41.45
72468;SHT30;60626;43.582;1.470;2022-08-07T02:24:22;29.02;41.68
72468;SHT30;60626;43.582;1.470;2022-08-07T02:26:50;29.01;41.80
72468;SHT30;60626;43.582;1.470;2022-08-07T02:29:18;28.97;41.91
72468;SHT30;60626;43.582;1.470;2022-08-07T02:31:49;28.92;41.99
72468;SHT30;60626;43.582;1.470;2022-08-07T02:34:20;28.91;42.35
72468;SHT30;60626;43.582;1.470;2022-08-07T02:36:49;28.86;42.26
72468;SHT30;60626;43.582;1.470;2022-08-07T02:39:17;28.84;42.59
72468;SHT30;60626;43.582;1.470;2022-08-07T02:42:05;28.78;42.65
72468;SHT30;60626;43.582;1.470;2022-08-07T02:44:42;28.71;43.24
72468;SHT30;60626;43.582;1.470;2022-08-07T02:47:15;28.73;43.00
72468;SHT30;60626;43.582;1.470;2022-08-07T02:49:48;28.71;43.27
72468;SHT30;60626;43.582;1.470;2022-08-07T02:55:06;28.63;43.47
72468;SHT30;60626;43.582;1.470;2022-08-07T02:58:00;28.65;43.52
72468;SHT30;60626;43.582;1.470;2022-08-07T03:00:32;28.63;43.41
72468;SHT30;60626;43.582;1.470;2022-08-07T03:03:00;28.63;43.41
72468;SHT30;60626;43.582;1.470;2022-08-07T03:05:32;28.57;43.47
72468;SHT30;60626;43.582;1.470;2022-08-07T03:08:04;28.57;43.60
72468;SHT30;60626;43.582;1.470;2022-08-07T03:10:36;28.53;43.43
72468;SHT30;60626;43.582;1.470;2022-08-07T03:13:14;28.50;43.55
72468;SHT30;60626;43.582;1.470;2022-08-07T03:15:45;28.46;43.70
72468;SHT30;60626;43.582;1.470;2022-08-07T03:18:22;28.44;43.82
72468;SHT30;60626;43.582;1.470;2022-08-07T03:21:00;28.47;43.83
72468;SHT30;60626;43.582;1.470;2022-08-07T03:23:27;28.43;43.93
72468;SHT30;60626;43.582;1.470;2022-08-07T03:26:17;28.36;43.87
72468;SHT30;60626;43.582;1.470;2022-08-07T03:28:49;28.31;43.97
72468;SHT30;60626;43.582;1.470;2022-08-07T03:31:18;28.27;44.02
72468;SHT30;60626;43.582;1.470;2022-08-07T03:33:55;28.23;44.07
72468;SHT30;60626;43.582;1.470;2022-08-07T03:36:24;28.22;44.18
72468;SHT30;60626;43.582;1.470;2022-08-07T03:38:55;28.22;44.24
72468;SHT30;60626;43.582;1.470;2022-08-07T03:41:31;28.20;44.23
72468;SHT30;60626;43.582;1.470;2022-08-07T03:44:13;28.20;44.42
72468;SHT30;60626;43.582;1.470;2022-08-07T03:46:41;28.23;44.44
72468;SHT30;60626;43.582;1.470;2022-08-07T03:49:28;28.20;44.59
72468;SHT30;60626;43.582;1.470;2022-08-07T03:51:57;28.19;44.53
72468;SHT30;60626;43.582;1.470;2022-08-07T03:54:27;28.18;44.46
72468;SHT30;60626;43.582;1.470;2022-08-07T03:57:14;28.18;44.63
72468;SHT30;60626;43.582;1.470;2022-08-07T04:00:03;28.15;44.60
72468;SHT30;60626;43.582;1.470;2022-08-07T04:02:31;28.10;44.63
72468;SHT30;60626;43.582;1.470;2022-08-07T04:04:58;28.12;44.70
72468;SHT30;60626;43.582;1.470;2022-08-07T04:07:24;28.05;44.70
72468;SHT30;60626;43.582;1.470;2022-08-07T04:10:07;28.05;44.67
72468;SHT30;60626;43.582;1.470;2022-08-07T04:12:41;28.04;44.72
72468;SHT30;60626;43.582;1.470;2022-08-07T04:15:09;28.01;44.57
72468;SHT30;60626;43.582;1.470;2022-08-07T04:17:37;27.99;44.54
72468;SHT30;60626;43.582;1.470;2022-08-07T04:20:24;27.95;44.49
72468;SHT30;60626;43.582;1.470;2022-08-07T04:22:51;27.95;44.47
72468;SHT30;60626;43.582;1.470;2022-08-07T04:25:27;27.91;44.20
72468;SHT30;60626;43.582;1.470;2022-08-07T04:28:01;27.85;44.35
72468;SHT30;60626;43.582;1.470;2022-08-07T04:30:28;27.81;44.45
72468;SHT30;60626;43.582;1.470;2022-08-07T04:33:16;27.77;44.56
72468;SHT30;60626;43.582;1.470;2022-08-07T04:35:44;27.74;44.53
72468;SHT30;60626;43.582;1.470;2022-08-07T04:38:16;27.77;44.71
72468;SHT30;60626;43.582;1.470;2022-08-07T04:40:45;27.74;44.75
72468;SHT30;60626;43.582;1.470;2022-08-07T04:43:30;27.72;44.77
72468;SHT30;60626;43.582;1.470;2022-08-07T04:46:32;27.72;44.77
72468;SHT30;60626;43.582;1.470;2022-08-07T04:55:31;27.60;44.75
72468;SHT30;60626;43.582;1.470;2022-08-07T04:58:46;27.57;44.77
72468;SHT30;60626;43.582;1.470;2022-08-07T05:01:51;27.58;44.72
72468;SHT30;60626;43.582;1.470;2022-08-07T05:05:09;27.55;44.77
72468;SHT30;60626;43.582;1.470;2022-08-07T05:07:22;27.55;44.61
72468;SHT30;60626;43.582;1.470;2022-08-07T05:10:12;27.55;44.92
72468;SHT30;60626;43.582;1.470;2022-08-07T05:15:23;28.06;44.33
72468;SHT30;60626;43.582;1.470;2022-08-07T05:18:05;28.54;43.73
72468;SHT30;60626;43.582;1.470;2022-08-07T05:20:44;29.01;43.14
72468;SHT30;60626;43.582;1.470;2022-08-07T05:23:35;29.43;42.43
72468;SHT30;60626;43.582;1.470;2022-08-07T05:26:03;29.87;41.40
72468;SHT30;60626;43.582;1.470;2022-08-07T05:28:45;30.36;41.32
72468;SHT30;60626;43.582;1.470;2022-08-07T05:31:18;30.80;40.39
72468;SHT30;60626;43.582;1.470;2022-08-07T05:33:50;31.20;39.67
72468;SHT30;60626;43.582;1.470;2022-08-07T05:36:32;31.59;38.81
72468;SHT30;60626;43.582;1.470;2022-08-07T05:39:01;31.89;38.34
72468;SHT30;60626;43.582;1.470;2022-08-07T05:41:49;31.73;38.20
72468;SHT30;60626;43.582;1.470;2022-08-07T05:44:30;31.43;38.45
72468;SHT30;60626;43.582;1.470;2022-08-07T05:47:00;31.11;38.98
72468;SHT30;60626;43.582;1.470;2022-08-07T05:49:47;30.72;39.77
72468;SHT30;60626;43.582;1.470;2022-08-07T05:52:18;30.32;40.45
72468;SHT30;60626;43.582;1.470;2022-08-07T05:54:55;29.93;40.64
72468;SHT30;60626;43.582;1.470;2022-08-07T05:57:28;29.60;41.14
72468;SHT30;60626;43.582;1.470;2022-08-07T06:00:05;29.32;41.53
72468;SHT30;60626;43.582;1.470;2022-08-07T06:02:45;29.05;41.93
72468;SHT30;60626;43.582;1.470;2022-08-07T06:05:14;28.87;42.32
72468;SHT30;60626;43.582;1.470;2022-08-07T06:07:42;28.65;42.64
72468;SHT30;60626;43.582;1.470;2022-08-07T06:10:29;28.52;43.02
72468;SHT30;60626;43.582;1.470;2022-08-07T06:12:56;28.42;43.30
72468;SHT30;60626;43.582;1.470;2022-08-07T06:15:28;28.32;43.34
72468;SHT30;60626;43.582;1.470;2022-08-07T06:18:10;28.20;43.52
72468;SHT30;60626;43.582;1.470;2022-08-07T06:20:39;28.15;43.64
72468;SHT30;60626;43.582;1.470;2022-08-07T06:23:27;28.15;43.51
72468;SHT30;60626;43.582;1.470;2022-08-07T06:26:15;28.18;43.78
72468;SHT30;60626;43.582;1.470;2022-08-07T06:28:49;28.20;43.96
72468;SHT30;60626;43.582;1.470;2022-08-07T06:31:19;28.19;43.85
72468;SHT30;60626;43.582;1.470;2022-08-07T06:33:49;28.13;43.69
72468;SHT30;60626;43.582;1.470;2022-08-07T06:36:16;28.13;43.77
72468;SHT30;60626;43.582;1.470;2022-08-07T06:39:00;28.15;43.86
72468;SHT30;60626;43.582;1.470;2022-08-07T06:41:55;28.23;43.69
72468;SHT30;60626;43.582;1.470;2022-08-07T06:44:29;28.29;43.43
72468;SHT30;60626;43.582;1.470;2022-08-07T06:47:05;28.40;43.07
72468;SHT30;60626;43.582;1.470;2022-08-07T06:49:41;28.60;42.83
72468;SHT30;60626;43.582;1.470;2022-08-07T06:52:18;28.74;42.25
72468;SHT30;60626;43.582;1.470;2022-08-07T06:55:02;28.88;41.44
72468;SHT30;60626;43.582;1.470;2022-08-07T06:57:50;28.97;40.98
72468;SHT30;60626;43.582;1.470;2022-08-07T07:00:23;29.08;41.04
72468;SHT30;60626;43.582;1.470;2022-08-07T07:02:53;29.23;41.25
72468;SHT30;60626;43.582;1.470;2022-08-07T07:05:27;29.26;40.83
72468;SHT30;60626;43.582;1.470;2022-08-07T07:08:14;29.35;40.69
72468;SHT30;60626;43.582;1.470;2022-08-07T07:10:51;29.46;40.46
72468;SHT30;60626;43.582;1.470;2022-08-07T07:13:40;29.62;40.57
72468;SHT30;60626;43.582;1.470;2022-08-07T07:16:24;29.72;39.84
72468;SHT30;60626;43.582;1.470;2022-08-07T07:19:00;29.90;39.17
72468;SHT30;60626;43.582;1.470;2022-08-07T07:21:49;30.10;39.39
72468;SHT30;60626;43.582;1.470;2022-08-07T07:24:38;30.28;38.95
72468;SHT30;60626;43.582;1.470;2022-08-07T07:27:10;30.45;38.81
72468;SHT30;60626;43.582;1.470;2022-08-07T07:29:48;30.52;38.73
72468;SHT30;60626;43.582;1.470;2022-08-07T07:32:38;30.56;37.68
72468;SHT30;60626;43.582;1.470;2022-08-07T07:35:10;30.55;37.87
72468;SHT30;60626;43.582;1.470;2022-08-07T07:37:40;30.63;38.19
72468;SHT30;60626;43.582;1.470;2022-08-07T07:40:17;30.73;37.93
72468;SHT30;60626;43.582;1.470;2022-08-07T07:42:47;30.77;37.44
72468;SHT30;60626;43.582;1.470;2022-08-07T07:45:22;30.83;37.52
72468;SHT30;60626;43.582;1.470;2022-08-07T07:48:15;30.90;37.78
72468;SHT30;60626;43.582;1.470;2022-08-07T07:51:02;30.98;37.68
72468;SHT30;60626;43.582;1.470;2022-08-07T07:53:36;31.11;37.42
72468;SHT30;60626;43.582;1.470;2022-08-07T07:56:18;31.20;37.45
72468;SHT30;60626;43.582;1.470;2022-08-07T07:58:58;31.32;37.26
72468;SHT30;60626;43.582;1.470;2022-08-07T08:01:28;31.39;37.10
72468;SHT30;60626;43.582;1.470;2022-08-07T08:04:16;31.45;37.15
72468;SHT30;60626;43.582;1.470;2022-08-07T08:06:45;31.37;36.92
72468;SHT30;60626;43.582;1.470;2022-08-07T08:09:22;31.39;36.25
72468;SHT30;60626;43.582;1.470;2022-08-07T08:11:53;31.39;37.01
72468;SHT30;60626;43.582;1.470;2022-08-07T08:14:33;31.38;36.77
72468;SHT30;60626;43.582;1.470;2022-08-07T08:17:04;31.53;36.87
72468;SHT30;60626;43.582;1.470;2022-08-07T08:19:55;31.68;36.76
72468;SHT30;60626;43.582;1.470;2022-08-07T08:22:45;31.80;36.60
72468;SHT30;60626;43.582;1.470;2022-08-07T08:25:37;31.98;36.56
72468;SHT30;60626;43.582;1.470;2022-08-07T08:28:31;32.17;36.35
72468;SHT30;60626;43.582;1.470;2022-08-07T08:31:07;32.30;36.55
72468;SHT30;60626;43.582;1.470;2022-08-07T08:33:42;32.42;36.74
72468;SHT30;60626;43.582;1.470;2022-08-07T08:36:23;32.41;36.36
72468;SHT30;60626;43.582;1.470;2022-08-07T08:38:55;32.35;35.93
72468;SHT30;60626;43.582;1.470;2022-08-07T08:41:42;32.32;35.57
72468;SHT30;60626;43.582;1.470;2022-08-07T08:47:29;32.50;34.90
72468;SHT30;60626;43.582;1.470;2022-08-07T08:50:24;32.54;35.41
72468;SHT30;60626;43.582;1.470;2022-08-07T08:53:15;32.67;35.71
72468;SHT30;60626;43.582;1.470;2022-08-07T08:55:57;32.75;35.33
72468;SHT30;60626;43.582;1.470;2022-08-07T09:04:40;33.16;34.90
72468;SHT30;60626;43.582;1.470;2022-08-07T09:09:57;33.17;34.26
72468;SHT30;60626;43.582;1.470;2022-08-07T09:25:22;33.14;34.38
72468;SHT30;60626;43.582;1.470;2022-08-07T09:28:04;33.27;34.09
72468;SHT30;60626;43.582;1.470;2022-08-07T09:31:09;33.34;33.85
72468;SHT30;60626;43.582;1.470;2022-08-07T09:34:14;33.35;34.02
72468;SHT30;60626;43.582;1.470;2022-08-07T09:36:54;33.46;34.25
72468;SHT30;60626;43.582;1.470;2022-08-07T09:39:38;33.60;34.71
72468;SHT30;60626;43.582;1.470;2022-08-07T09:48:48;33.72;33.61
72468;SHT30;60626;43.582;1.470;2022-08-07T09:51:58;33.78;34.39
72468;SHT30;60626;43.582;1.470;2022-08-07T09:54:53;33.81;33.23
72468;SHT30;60626;43.582;1.470;2022-08-07T10:00:11;33.79;32.77
72468;SHT30;60626;43.582;1.470;2022-08-07T10:19:45;33.96;32.78
72468;SHT30;60626;43.582;1.470;2022-08-07T10:25:37;34.08;32.66
72468;SHT30;60626;43.582;1.470;2022-08-07T10:34:24;34.32;32.93
72468;SHT30;60626;43.582;1.470;2022-08-07T10:37:35;34.29;32.25
72468;SHT30;60626;43.582;1.470;2022-08-07T10:40:32;34.31;31.76
72468;SHT30;60626;43.582;1.470;2022-08-07T10:43:11;34.35;31.67
72468;SHT30;60626;43.582;1.470;2022-08-07T10:45:49;34.31;31.49
72468;SHT30;60626;43.582;1.470;2022-08-07T10:48:33;34.35;31.69
72468;SHT30;60626;43.582;1.470;2022-08-07T10:51:09;34.37;31.48
72468;SHT30;60626;43.582;1.470;2022-08-07T10:59:11;34.46;30.96
72468;SHT30;60626;43.582;1.470;2022-08-07T11:01:48;34.47;30.91
72468;SHT30;60626;43.582;1.470;2022-08-07T11:04:51;34.49;30.80
72468;SHT30;60626;43.582;1.470;2022-08-07T11:07:38;34.49;30.97
72468;SHT30;60626;43.582;1.470;2022-08-07T11:10:34;34.43;30.89
72468;SHT30;60626;43.582;1.470;2022-08-07T11:13:22;34.35;30.88
72468;SHT30;60626;43.582;1.470;2022-08-07T11:25:25;34.37;31.22
72468;SHT30;60626;43.582;1.470;2022-08-07T11:28:09;34.35;30.60
72468;SHT30;60626;43.582;1.470;2022-08-07T11:33:23;34.39;30.24
72468;SHT30;60626;43.582;1.470;2022-08-07T11:36:38;34.42;30.17
72468;SHT30;60626;43.582;1.470;2022-08-07T11:42:38;34.43;30.43
72468;SHT30;60626;43.582;1.470;2022-08-07T11:45:36;34.42;30.31
72468;SHT30;60626;43.582;1.470;2022-08-07T11:57:04;34.43;30.28
72468;SHT30;60626;43.582;1.470;2022-08-07T12:08:32;34.32;29.53
72468;SHT30;60626;43.582;1.470;2022-08-07T12:11:11;34.32;29.37
72468;SHT30;60626;43.582;1.470;2022-08-07T12:14:14;34.36;29.37
72468;SHT30;60626;43.582;1.470;2022-08-07T12:16:53;34.37;29.08
72468;SHT30;60626;43.582;1.470;2022-08-07T12:19:40;34.36;29.44
72468;SHT30;60626;43.582;1.470;2022-08-07T12:22:41;34.33;29.47
72468;SHT30;60626;43.582;1.470;2022-08-07T12:28:55;34.33;28.44
72468;SHT30;60626;43.582;1.470;2022-08-07T12:31:34;34.32;28.93
72468;SHT30;60626;43.582;1.470;2022-08-07T12:34:25;34.25;28.76
72468;SHT30;60626;43.582;1.470;2022-08-07T12:36:55;34.25;28.58
72468;SHT30;60626;43.582;1.470;2022-08-07T12:39:25;34.22;28.46
72468;SHT30;60626;43.582;1.470;2022-08-07T12:42:21;34.27;29.17
72468;SHT30;60626;43.582;1.470;2022-08-07T12:44:55;34.32;27.99
72468;SHT30;60626;43.582;1.470;2022-08-07T12:47:29;34.32;28.79
72468;SHT30;60626;43.582;1.470;2022-08-07T12:53:21;34.22;28.12
72468;SHT30;60626;43.582;1.470;2022-08-07T12:56:08;34.19;28.26
72468;SHT30;60626;43.582;1.470;2022-08-07T12:58:39;34.20;28.50
72468;SHT30;60626;43.582;1.470;2022-08-07T13:01:29;34.26;28.14
72468;SHT30;60626;43.582;1.470;2022-08-07T13:04:19;34.31;27.58
72468;SHT30;60626;43.582;1.470;2022-08-07T13:07:29;34.29;27.80
72468;SHT30;60626;43.582;1.470;2022-08-07T13:13:32;34.31;28.73
72468;SHT30;60626;43.582;1.470;2022-08-07T13:19:38;34.19;28.03
72468;SHT30;60626;43.582;1.470;2022-08-07T13:25:08;34.23;27.35
72468;SHT30;60626;43.582;1.470;2022-08-07T13:27:55;34.25;27.38
72468;SHT30;60626;43.582;1.470;2022-08-07T13:30:42;34.26;27.36
72468;SHT30;60626;43.582;1.470;2022-08-07T13:36:56;34.26;26.97
72468;SHT30;60626;43.582;1.470;2022-08-07T13:39:35;34.27;27.03
72468;SHT30;60626;43.582;1.470;2022-08-07T13:42:24;34.27;27.28
72468;SHT30;60626;43.582;1.470;2022-08-07T13:44:52;34.32;27.35
72468;SHT30;60626;43.582;1.470;2022-08-07T13:47:40;34.37;27.38
72468;SHT30;60626;43.582;1.470;2022-08-07T13:50:28;34.35;27.18
72468;SHT30;60626;43.582;1.470;2022-08-07T13:53:01;34.37;27.51
72468;SHT30;60626;43.582;1.470;2022-08-07T13:55:29;34.44;27.34
72468;SHT30;60626;43.582;1.470;2022-08-07T13:58:08;34.44;27.21
72468;SHT30;60626;43.582;1.470;2022-08-07T14:01:08;34.49;26.95
72468;SHT30;60626;43.582;1.470;2022-08-07T14:03:36;34.49;26.92
72468;SHT30;60626;43.582;1.470;2022-08-07T14:06:34;34.53;26.51
72468;SHT30;60626;43.582;1.470;2022-08-07T14:09:03;34.54;27.34
72468;SHT30;60626;43.582;1.470;2022-08-07T14:11:36;34.51;27.23
72468;SHT30;60626;43.582;1.470;2022-08-07T14:14:44;34.53;26.02
72468;SHT30;60626;43.582;1.470;2022-08-07T14:17:14;34.50;26.05
72468;SHT30;60626;43.582;1.470;2022-08-07T14:20:18;34.54;26.21
72468;SHT30;60626;43.582;1.470;2022-08-07T14:23:26;34.57;26.04
72468;SHT30;60626;43.582;1.470;2022-08-07T14:26:21;34.51;25.90
72468;SHT30;60626;43.582;1.470;2022-08-07T14:28:56;34.51;25.69
72468;SHT30;60626;43.582;1.470;2022-08-07T14:31:37;34.53;26.60
72468;SHT30;60626;43.582;1.470;2022-08-07T14:34:19;34.53;26.01
72468;SHT30;60626;43.582;1.470;2022-08-07T14:36:58;34.57;26.07
72468;SHT30;60626;43.582;1.470;2022-08-07T14:39:30;34.59;26.64
72468;SHT30;60626;43.582;1.470;2022-08-07T14:42:22;34.59;26.07
72468;SHT30;60626;43.582;1.470;2022-08-07T14:44:57;34.61;26.17
72468;SHT30;60626;43.582;1.470;2022-08-07T14:47:45;34.64;25.94
72468;SHT30;60626;43.582;1.470;2022-08-07T14:50:14;34.68;25.84
72468;SHT30;60626;43.582;1.470;2022-08-07T14:52:46;34.70;25.74
72468;SHT30;60626;43.582;1.470;2022-08-07T14:55:17;34.70;25.48
72468;SHT30;60626;43.582;1.470;2022-08-07T14:57:48;34.70;25.52
72468;SHT30;60626;43.582;1.470;2022-08-07T15:00:38;34.74;26.18
72468;SHT30;60626;43.582;1.470;2022-08-07T15:03:10;34.77;26.23
72468;SHT30;60626;43.582;1.470;2022-08-07T15:05:46;34.78;25.35
72468;SHT30;60626;43.582;1.470;2022-08-07T15:08:37;34.80;25.41
72468;SHT30;60626;43.582;1.470;2022-08-07T15:11:24;34.80;26.04
72468;SHT30;60626;43.582;1.470;2022-08-07T15:14:19;34.83;25.57
72468;SHT30;60626;43.582;1.470;2022-08-07T15:16:51;34.78;24.88
72468;SHT30;60626;43.582;1.470;2022-08-07T15:19:24;34.71;24.81
72468;SHT30;60626;43.582;1.470;2022-08-07T15:22:12;34.71;25.07
72468;SHT30;60626;43.582;1.470;2022-08-07T15:25:00;34.72;24.93
72468;SHT30;60626;43.582;1.470;2022-08-07T15:27:47;34.72;24.49
72468;SHT30;60626;43.582;1.470;2022-08-07T15:30:35;34.68;24.63
72468;SHT30;60626;43.582;1.470;2022-08-07T15:33:23;34.74;24.81
72468;SHT30;60626;43.582;1.470;2022-08-07T15:36:10;34.78;24.71
72468;SHT30;60626;43.582;1.470;2022-08-07T15:38:39;34.77;24.39
72468;SHT30;60626;43.582;1.470;2022-08-07T15:41:28;34.77;24.30
72468;SHT30;60626;43.582;1.470;2022-08-07T15:44:18;34.72;24.10
72468;SHT30;60626;43.582;1.470;2022-08-07T15:46:58;34.71;24.89
72468;SHT30;60626;43.582;1.470;2022-08-07T15:49:34;34.66;24.40
72468;SHT30;60626;43.582;1.470;2022-08-07T15:52:24;34.68;24.44
72468;SHT30;60626;43.582;1.470;2022-08-07T15:54:58;34.72;24.43
72468;SHT30;60626;43.582;1.470;2022-08-07T15:57:30;34.72;24.38
72468;SHT30;60626;43.582;1.470;2022-08-07T16:00:16;34.76;24.30
72468;SHT30;60626;43.582;1.470;2022-08-07T16:03:10;34.77;24.97
72468;SHT30;60626;43.582;1.470;2022-08-07T16:06:00;34.76;24.94
72468;SHT30;60626;43.582;1.470;2022-08-07T16:08:29;34.74;24.01
72468;SHT30;60626;43.582;1.470;2022-08-07T16:11:07;34.74;24.24
72468;SHT30;60626;43.582;1.470;2022-08-07T16:16:47;34.76;24.05
72468;SHT30;60626;43.582;1.470;2022-08-07T16:19:44;34.72;24.34
72468;SHT30;60626;43.582;1.470;2022-08-07T16:28:10;34.67;24.16
72468;SHT30;60626;43.582;1.470;2022-08-07T16:31:27;34.67;24.19
72468;SHT30;60626;43.582;1.470;2022-08-07T16:34:38;34.67;23.95
72468;SHT30;60626;43.582;1.470;2022-08-07T16:43:42;34.63;24.65
72468;SHT30;60626;43.582;1.470;2022-08-07T16:49:59;34.59;23.95
72468;SHT30;60626;43.582;1.470;2022-08-07T16:58:22;34.54;23.82
72468;SHT30;60626;43.582;1.470;2022-08-07T17:01:34;34.53;23.63
72468;SHT30;60626;43.582;1.470;2022-08-07T17:04:35;34.50;23.24
72468;SHT30;60626;43.582;1.470;2022-08-07T17:07:30;34.46;23.10
72468;SHT30;60626;43.582;1.470;2022-08-07T17:16:08;34.33;22.97
72468;SHT30;60626;43.582;1.470;2022-08-07T17:21:30;34.26;23.21
72468;SHT30;60626;43.582;1.470;2022-08-07T17:33:01;34.17;23.74
72468;SHT30;60626;43.582;1.470;2022-08-07T17:36:05;34.10;23.20
72468;SHT30;60626;43.582;1.470;2022-08-07T17:39:05;34.08;23.70
72468;SHT30;60626;43.582;1.470;2022-08-07T17:42:00;34.08;23.45
72468;SHT30;60626;43.582;1.470;2022-08-07T17:44:41;34.04;23.87
72468;SHT30;60626;43.582;1.470;2022-08-07T17:47:35;34.01;23.45
72468;SHT30;60626;43.582;1.470;2022-08-07T17:50:17;33.98;23.39
72468;SHT30;60626;43.582;1.470;2022-08-07T17:52:54;33.94;23.63
72468;SHT30;60626;43.582;1.470;2022-08-07T17:55:29;33.87;23.35
72468;SHT30;60626;43.582;1.470;2022-08-07T17:58:29;33.85;23.32
72468;SHT30;60626;43.582;1.470;2022-08-07T18:01:06;33.82;23.70
72468;SHT30;60626;43.582;1.470;2022-08-07T18:03:55;33.81;23.72
72468;SHT30;60626;43.582;1.470;2022-08-07T18:07:27;33.78;23.42
72468;SHT30;60626;43.582;1.470;2022-08-07T18:09:57;33.74;23.24
72468;SHT30;60626;43.582;1.470;2022-08-07T18:16:01;33.65;23.36
72468;SHT30;60626;43.582;1.470;2022-08-07T18:18:42;33.61;23.39
72468;SHT30;60626;43.582;1.470;2022-08-07T18:21:32;33.58;23.47
72468;SHT30;60626;43.582;1.470;2022-08-07T18:24:26;33.55;23.12
72468;SHT30;60626;43.582;1.470;2022-08-07T18:38:29;33.37;23.23
72468;SHT30;60626;43.582;1.470;2022-08-07T18:41:43;33.35;23.19
72468;SHT30;60626;43.582;1.470;2022-08-07T18:44:37;33.31;23.24
72468;SHT30;60626;43.582;1.470;2022-08-07T18:53:20;33.17;23.47
72468;SHT30;60626;43.582;1.470;2022-08-07T18:59:04;33.10;23.39
72468;SHT30;60626;43.582;1.470;2022-08-07T19:02:05;33.07;23.37
72468;SHT30;60626;43.582;1.470;2022-08-07T19:04:58;33.03;23.34
72468;SHT30;60626;43.582;1.470;2022-08-07T19:07:54;33.00;23.56
72468;SHT30;60626;43.582;1.470;2022-08-07T19:10:35;32.96;23.57
72468;SHT30;60626;43.582;1.470;2022-08-07T19:13:28;32.90;23.55
72468;SHT30;60626;43.582;1.470;2022-08-07T19:16:07;32.85;23.66
72468;SHT30;60626;43.582;1.470;2022-08-07T19:19:07;32.82;23.78
72468;SHT30;60626;43.582;1.470;2022-08-07T19:21:47;32.79;23.85
72468;SHT30;60626;43.582;1.470;2022-08-07T19:24:41;32.75;23.90
72468;SHT30;60626;43.582;1.470;2022-08-07T19:27:22;32.74;24.04
72468;SHT30;60626;43.582;1.470;2022-08-07T19:30:13;32.65;24.11
72468;SHT30;60626;43.582;1.470;2022-08-07T19:33:06;32.61;24.09
72468;SHT30;60626;43.582;1.470;2022-08-07T19:35:42;32.59;24.09
72468;SHT30;60626;43.582;1.470;2022-08-07T19:38:13;32.55;24.22
72468;SHT30;60626;43.582;1.470;2022-08-07T19:40:44;32.54;24.23
72468;SHT30;60626;43.582;1.470;2022-08-07T19:43:27;32.48;24.34
72468;SHT30;60626;43.582;1.470;2022-08-07T19:46:33;32.47;24.33
72468;SHT30;60626;43.582;1.470;2022-08-07T19:49:05;32.42;24.22
72468;SHT30;60626;43.582;1.470;2022-08-07T19:51:34;32.42;24.27
72468;SHT30;60626;43.582;1.470;2022-08-07T19:54:19;32.37;24.22
72468;SHT30;60626;43.582;1.470;2022-08-07T19:57:02;32.37;24.45
72468;SHT30;60626;43.582;1.470;2022-08-07T19:59:57;32.28;24.35
72468;SHT30;60626;43.582;1.470;2022-08-07T20:02:32;32.28;24.45
72468;SHT30;60626;43.582;1.470;2022-08-07T20:05:07;32.25;24.43
72468;SHT30;60626;43.582;1.470;2022-08-07T20:07:35;32.21;24.57
72468;SHT30;60626;43.582;1.470;2022-08-07T20:10:17;32.21;24.66